עמוד ראשי
METAR-TAF:

METAR-TAF

שדות תעופה :

אסיוט, מצרים

קו רוחב: 27-03N, קו אורך: 031-01E, גובה: 226מטר

תצפית מזג אוויר נוכחית

הדו"ח נערך לפני 51דקות, בשעה 21:00 UTC
רוח 4קשר מכיוון צפון/צפון-מערב
טמפרטורת 31 צלסיוס
לחות 29%
לחץ 1008 hPa
ראות 10 קילומטר או יותר
ללא עננים שבסיסם נמוך מ 5000 רגל או קומולונימבוס

METAR: HEAT 252100Z 33004KT CAVOK 31/11 Q1008 NOSIG

זמן: 23:51 (21:51 UTC)

תחזית

הדו"ח נערך לפני 4 שעות ו 51דקות, בשעה 17:00 UTC
תחזית בתוקף מ 25 ב 18 UTC עד 26 ב 24 UTC
רוח 11קשר מכיוון צפון/צפון-מערב
ראות 10 קילומטר או יותר
ללא עננים שבסיסם נמוך מ 5000 רגל או קומולונימבוס

TAF: HEAT 251700Z 2518/2624 33011KT CAVOK

תצפיות ותחזיות מזג אוויר לגבי יותר מ- 4,000 שדות תעופה ברחבי העולם. דוחות METAR ו- TAF.

התחנות הזמינות מסומנות בנקודות צהובות ואדומות על גבי המפה.

העבר את העכבר לנקודה הצבעונית על מנת לראות את שם התחנה.

לאחר מכן, לחץ כדי לראות את תוכן ואת תחזיות מזג האוויר.

כדי לשנות את המפה: לחץ על הכפתורים הירוקים עם הפלוס השחור כדי להתקרב; על הכפתור הירוק עם המקף כדי להתרחק; או בחיצים הירוקים למפות סמוכות.


METAR-TAF: